Bergen, Canada
Current Conditions -  °F | °C
As of 2:00 AM on Friday 24 Oct 2014 (Local Time) from CYBW Reporting Station
Clear Clear  
Wind Chill: 29°   Ceiling: Unl
Heat Index: 36°   Visibility: 9mi
Dew Point: 25°   Wind: 8mph
Humidity: 65%   Direction: 310°NW
Pressure: 29.7"   Gusts: NA
Location:  51.71°N, 114.63°W
Report Text: CYBW 240800Z AUTO 31007KT 260V320 9SM CLR 02/M04 A2970 RMK SLP075
Loading
Personal Weather Stations






























Interactive Weather Map
Tropical Storm Tracking
New forecast layout! Learn more

10-Day Weather Forecast

Advertisements
Track Severe Weather on mobile